Ajlune, Washington
Current Conditions -  °F | °C
As of 4:35 AM on Wednesday 26 Nov 2014 (Local Time) from KCLS Reporting Station
NA  
Wind Chill: 57°   Ceiling: NA
Heat Index: 57°   Visibility: 10mi
Dew Point: 55°   Wind: 6mph
Humidity: 94%   Direction: NA
Pressure: 30.19"   Gusts: NA
Location:  46.4493°N, 122.435°W
Report Text: KCLS 261235Z AUTO VRB05KT 10SM 14/13 A3019 RMK AO2
Loading
Personal Weather Stations






























Interactive Weather Map New forecast layout! Learn more

10-Day Weather Forecast

Advertisements
Track Severe Weather on mobile